createdAt,value
2018-06-29T00:00:45.479Z,46.65
2018-06-29T00:01:45.466Z,46.17
2018-06-29T00:02:45.454Z,46.08
2018-06-29T00:03:45.466Z,46.47
2018-06-29T00:04:45.431Z,46.27
2018-06-29T00:05:45.421Z,46.47
2018-06-29T00:06:45.408Z,46.37
2018-06-29T00:07:45.398Z,46.37
2018-06-29T00:08:45.413Z,46.27
2018-06-29T00:09:45.377Z,45.97
2018-06-29T00:10:45.365Z,46.27
2018-06-29T00:11:45.356Z,46.37
2018-06-29T00:12:45.342Z,46.67
2018-06-29T00:13:45.355Z,46.37
2018-06-29T00:14:45.320Z,46.37
2018-06-29T00:15:45.311Z,46.47
2018-06-29T00:16:45.298Z,46.47
2018-06-29T00:17:45.287Z,46.67
2018-06-29T00:18:45.299Z,46.27
2018-06-29T00:19:45.264Z,46.67
2018-06-29T00:20:45.255Z,46.27
2018-06-29T00:21:45.241Z,46.17
2018-06-29T00:22:45.233Z,46.27
2018-06-29T00:23:45.244Z,46.47
2018-06-29T00:24:45.208Z,46.27
2018-06-29T00:25:45.198Z,46.47
2018-06-29T00:26:45.186Z,46.57
2018-06-29T00:27:45.175Z,46.47
2018-06-29T00:28:45.187Z,46.47
2018-06-29T00:29:45.152Z,46.47
2018-06-29T00:30:45.139Z,46.27
2018-06-29T00:31:45.130Z,46.27
2018-06-29T00:32:45.120Z,45.97
2018-06-29T00:33:45.132Z,46.37
2018-06-29T00:34:45.097Z,46.47
2018-06-29T00:35:45.085Z,46.27
2018-06-29T00:36:45.073Z,46.08
2018-06-29T00:37:45.063Z,46.67
2018-06-29T00:38:45.079Z,46.27
2018-06-29T00:39:45.041Z,46.37
2018-06-29T00:40:45.030Z,46.27
2018-06-29T00:41:45.020Z,46.27
2018-06-29T00:42:45.008Z,46.37
2018-06-29T00:43:45.022Z,46.27
2018-06-29T00:44:44.984Z,46.27
2018-06-29T00:45:44.972Z,46.37
2018-06-29T00:46:44.962Z,46.37
2018-06-29T00:47:44.951Z,46.27
2018-06-29T00:48:44.963Z,46.37
2018-06-29T00:49:44.928Z,46.27
2018-06-29T00:50:44.918Z,45.97
2018-06-29T00:51:44.913Z,46.37
2018-06-29T00:52:44.894Z,46.17
2018-06-29T00:53:44.889Z,46.37
2018-06-29T00:54:44.896Z,46.57
2018-06-29T00:55:44.866Z,46.47
2018-06-29T00:56:44.851Z,46.27
2018-06-29T00:57:44.838Z,46.37
2018-06-29T00:58:44.829Z,46.47
2018-06-29T00:59:44.842Z,46.27
2018-06-29T01:00:44.806Z,46.27
2018-06-29T01:01:44.794Z,46.47
2018-06-29T01:02:44.784Z,46.47
2018-06-29T01:03:44.773Z,46.27
2018-06-29T01:04:44.785Z,46.17
2018-06-29T01:05:44.751Z,46.57
2018-06-29T01:06:44.738Z,46.27
2018-06-29T01:07:44.727Z,46.08
2018-06-29T01:08:44.718Z,46.59
2018-06-29T01:09:44.731Z,46.39
2018-06-29T01:10:44.701Z,46.17
2018-06-29T01:11:44.682Z,46.39
2018-06-29T01:12:44.674Z,46.39
2018-06-29T01:13:44.661Z,46.57
2018-06-29T01:14:44.677Z,46.39
2018-06-29T01:15:44.639Z,46.49
2018-06-29T01:16:44.626Z,46.37
2018-06-29T01:17:44.619Z,45.90
2018-06-29T01:18:44.604Z,46.49
2018-06-29T01:19:44.622Z,46.30
2018-06-29T01:20:44.583Z,46.09
2018-06-29T01:21:44.571Z,46.20
2018-06-29T01:22:44.561Z,46.69
2018-06-29T01:23:44.549Z,46.30
2018-06-29T01:24:44.562Z,46.30
2018-06-29T01:25:44.526Z,46.20
2018-06-29T01:26:44.517Z,46.30
2018-06-29T01:27:44.504Z,46.69
2018-06-29T01:28:44.534Z,46.09
2018-06-29T01:29:44.506Z,46.20
2018-06-29T01:30:44.470Z,46.20
2018-06-29T01:31:44.459Z,46.08
2018-06-29T01:32:44.450Z,46.99
2018-06-29T01:33:44.441Z,46.20
2018-06-29T01:34:44.450Z,46.00
2018-06-29T01:35:44.416Z,46.30
2018-06-29T01:36:44.403Z,46.79
2018-06-29T01:37:44.392Z,46.89
2018-06-29T01:38:44.381Z,46.69
2018-06-29T01:39:44.396Z,46.79
2018-06-29T01:40:44.359Z,46.89
2018-06-29T01:41:44.347Z,46.97
2018-06-29T01:42:44.336Z,47.09
2018-06-29T01:43:44.325Z,46.89
2018-06-29T01:44:44.339Z,46.89
2018-06-29T01:45:44.303Z,46.89
2018-06-29T01:46:44.292Z,46.89
2018-06-29T01:47:44.281Z,46.79
2018-06-29T01:48:44.269Z,46.69
2018-06-29T01:49:44.283Z,47.09
2018-06-29T01:50:44.247Z,46.30
2018-06-29T01:51:44.242Z,46.89
2018-06-29T01:52:44.294Z,47.09
2018-06-29T01:53:44.214Z,46.79
2018-06-29T01:54:44.230Z,46.79
2018-06-29T01:55:44.192Z,46.39
2018-06-29T01:56:44.187Z,46.09
2018-06-29T01:57:44.169Z,46.59
2018-06-29T01:58:44.162Z,46.59
2018-06-29T01:59:44.171Z,46.59
2018-06-29T02:00:44.137Z,46.99
2018-06-29T02:01:44.124Z,46.99
2018-06-29T02:02:44.114Z,46.59
2018-06-29T02:03:44.102Z,46.59
2018-06-29T02:04:44.118Z,46.79
2018-06-29T02:05:44.079Z,46.59
2018-06-29T02:06:44.069Z,46.59
2018-06-29T02:07:44.057Z,46.79
2018-06-29T02:08:44.047Z,46.81
2018-06-29T02:09:44.061Z,46.79
2018-06-29T02:10:44.024Z,46.69
2018-06-29T02:11:44.017Z,46.79
2018-06-29T02:12:44.003Z,46.69
2018-06-29T02:13:43.991Z,46.59
2018-06-29T02:14:44.005Z,46.39
2018-06-29T02:15:43.968Z,46.79
2018-06-29T02:16:43.956Z,46.89
2018-06-29T02:17:43.948Z,46.79
2018-06-29T02:18:43.935Z,46.72
2018-06-29T02:19:43.948Z,46.79
2018-06-29T02:20:43.914Z,46.59
2018-06-29T02:21:43.902Z,46.59
2018-06-29T02:22:43.890Z,46.61
2018-06-29T02:23:43.882Z,46.49
2018-06-29T02:24:43.894Z,46.59
2018-06-29T02:25:43.856Z,46.59
2018-06-29T02:26:43.845Z,46.39
2018-06-29T02:27:43.899Z,46.51
2018-06-29T02:28:43.826Z,46.59
2018-06-29T02:29:43.837Z,46.39
2018-06-29T02:30:43.906Z,46.69
2018-06-29T02:31:43.791Z,46.39
2018-06-29T02:32:43.780Z,46.39
2018-06-29T02:33:43.770Z,46.61
2018-06-29T02:34:43.781Z,46.59
2018-06-29T02:35:43.747Z,46.59
2018-06-29T02:36:43.734Z,46.49
2018-06-29T02:37:43.725Z,46.69
2018-06-29T02:38:43.718Z,46.59
2018-06-29T02:39:43.702Z,46.39
2018-06-29T02:40:43.723Z,46.49
2018-06-29T02:41:43.679Z,46.59
2018-06-29T02:42:43.667Z,46.69
2018-06-29T02:43:43.656Z,46.69
2018-06-29T02:44:43.647Z,46.79
2018-06-29T02:45:43.659Z,46.30
2018-06-29T02:46:43.623Z,46.69
2018-06-29T02:47:43.618Z,46.51
2018-06-29T02:48:43.601Z,46.61
2018-06-29T02:49:43.592Z,46.09
2018-06-29T02:50:43.602Z,46.99
2018-06-29T02:51:43.570Z,47.19
2018-06-29T02:52:43.556Z,46.00
2018-06-29T02:53:43.545Z,47.02
2018-06-29T02:54:43.535Z,46.12
2018-06-29T02:55:43.547Z,46.89
2018-06-29T02:56:43.517Z,47.51
2018-06-29T02:57:43.501Z,46.81
2018-06-29T02:58:43.488Z,46.72
2018-06-29T02:59:43.477Z,46.79
2018-06-29T03:00:43.491Z,46.81
2018-06-29T03:01:43.456Z,47.02
2018-06-29T03:02:43.444Z,46.81
2018-06-29T03:03:43.432Z,46.81
2018-06-29T03:04:43.448Z,47.02
2018-06-29T03:05:43.456Z,47.11
2018-06-29T03:06:43.401Z,46.91
2018-06-29T03:07:43.388Z,47.61
2018-06-29T03:08:43.376Z,47.61
2018-06-29T03:09:43.367Z,47.11
2018-06-29T03:10:43.380Z,47.21
2018-06-29T03:11:43.345Z,47.02
2018-06-29T03:12:43.333Z,47.02
2018-06-29T03:13:43.321Z,47.02
2018-06-29T03:14:43.312Z,47.41
2018-06-29T03:15:43.324Z,47.41
2018-06-29T03:16:43.291Z,47.61
2018-06-29T03:17:43.277Z,47.21
2018-06-29T03:18:43.264Z,47.31
2018-06-29T03:19:43.254Z,47.21
2018-06-29T03:20:43.267Z,47.41
2018-06-29T03:21:43.232Z,47.41
2018-06-29T03:22:43.221Z,47.51
2018-06-29T03:23:43.210Z,47.41
2018-06-29T03:24:43.198Z,47.41
2018-06-29T03:25:43.212Z,47.41
2018-06-29T03:26:43.176Z,47.41
2018-06-29T03:27:43.164Z,47.21
2018-06-29T03:28:43.153Z,47.51
2018-06-29T03:29:43.142Z,47.41
2018-06-29T03:30:43.156Z,47.31
2018-06-29T03:31:43.120Z,47.31
2018-06-29T03:32:43.111Z,47.11
2018-06-29T03:33:43.098Z,47.11
2018-06-29T03:34:43.093Z,47.21
2018-06-29T03:35:43.100Z,47.21
2018-06-29T03:36:43.065Z,46.91
2018-06-29T03:37:43.053Z,47.31
2018-06-29T03:38:43.041Z,47.11
2018-06-29T03:39:43.030Z,47.31
2018-06-29T03:40:43.114Z,47.21
2018-06-29T03:41:43.012Z,47.21
2018-06-29T03:42:42.997Z,47.11
2018-06-29T03:43:42.988Z,46.91
2018-06-29T03:44:42.975Z,47.11
2018-06-29T03:45:42.988Z,47.11
2018-06-29T03:46:42.952Z,47.31
2018-06-29T03:47:42.942Z,47.11
2018-06-29T03:48:42.931Z,47.21
2018-06-29T03:49:42.920Z,47.41
2018-06-29T03:50:42.934Z,47.71
2018-06-29T03:51:42.897Z,47.21
2018-06-29T03:52:42.886Z,47.41
2018-06-29T03:53:42.875Z,47.21
2018-06-29T03:54:42.864Z,48.01
2018-06-29T03:55:42.876Z,47.41
2018-06-29T03:56:42.842Z,47.81
2018-06-29T03:57:42.830Z,47.41
2018-06-29T03:58:42.826Z,48.11
2018-06-29T03:59:42.812Z,47.21
2018-06-29T04:00:42.822Z,47.21
2018-06-29T04:01:42.794Z,48.11
2018-06-29T04:02:42.800Z,48.11
2018-06-29T04:03:42.762Z,47.41
2018-06-29T04:04:42.751Z,47.41
2018-06-29T04:05:42.764Z,47.91
2018-06-29T04:06:42.730Z,47.41
2018-06-29T04:07:42.718Z,47.81
2018-06-29T04:08:42.707Z,48.01
2018-06-29T04:09:42.696Z,47.61
2018-06-29T04:10:42.709Z,47.81
2018-06-29T04:11:42.717Z,47.41
2018-06-29T04:12:42.665Z,47.11
2018-06-29T04:13:42.656Z,48.11
2018-06-29T04:14:42.640Z,47.81
2018-06-29T04:15:42.654Z,47.71
2018-06-29T04:16:42.618Z,48.01
2018-06-29T04:17:42.607Z,47.41
2018-06-29T04:18:42.596Z,47.11
2018-06-29T04:19:42.586Z,47.61
2018-06-29T04:20:42.598Z,47.71
2018-06-29T04:21:42.563Z,48.11
2018-06-29T04:22:42.553Z,47.31
2018-06-29T04:23:42.540Z,47.71
2018-06-29T04:24:42.530Z,47.61
2018-06-29T04:25:42.519Z,47.81
2018-06-29T04:26:42.531Z,47.91
2018-06-29T04:27:42.495Z,47.31
2018-06-29T04:28:42.483Z,47.71
2018-06-29T04:29:42.474Z,47.61
2018-06-29T04:30:42.463Z,47.71
2018-06-29T04:31:42.475Z,47.21
2018-06-29T04:32:42.460Z,48.01
2018-06-29T04:33:42.428Z,47.81
2018-06-29T04:34:42.417Z,47.81
2018-06-29T04:35:42.409Z,47.91
2018-06-29T04:36:42.419Z,47.91
2018-06-29T04:37:42.388Z,47.81
2018-06-29T04:38:42.372Z,47.91
2018-06-29T04:39:42.361Z,47.21
2018-06-29T04:40:42.353Z,47.91
2018-06-29T04:41:42.364Z,47.91
2018-06-29T04:42:42.337Z,47.81
2018-06-29T04:43:42.318Z,47.81
2018-06-29T04:44:42.306Z,47.71
2018-06-29T04:45:42.294Z,47.91
2018-06-29T04:46:42.307Z,47.71
2018-06-29T04:47:42.272Z,47.91
2018-06-29T04:48:42.260Z,47.91
2018-06-29T04:49:42.249Z,47.71
2018-06-29T04:50:42.243Z,47.91
2018-06-29T04:51:42.252Z,47.91
2018-06-29T04:52:42.216Z,47.91
2018-06-29T04:53:42.208Z,47.91
2018-06-29T04:54:42.195Z,47.91
2018-06-29T04:55:42.182Z,47.71
2018-06-29T04:56:42.197Z,47.71
2018-06-29T04:57:42.160Z,47.71
2018-06-29T04:58:42.150Z,48.01
2018-06-29T04:59:42.139Z,48.11
2018-06-29T05:00:42.128Z,47.91
2018-06-29T05:01:42.140Z,47.71
2018-06-29T05:02:42.105Z,47.71
2018-06-29T05:03:42.094Z,47.71
2018-06-29T05:04:42.083Z,47.61
2018-06-29T05:05:42.072Z,47.61
2018-06-29T05:06:42.085Z,48.01
2018-06-29T05:07:42.049Z,48.11
2018-06-29T05:08:42.039Z,47.81
2018-06-29T05:09:42.027Z,47.81
2018-06-29T05:10:42.016Z,47.81
2018-06-29T05:11:42.030Z,47.91
2018-06-29T05:12:41.994Z,47.81
2018-06-29T05:13:41.982Z,47.81
2018-06-29T05:14:41.972Z,47.71
2018-06-29T05:15:41.960Z,47.91
2018-06-29T05:16:41.974Z,47.81
2018-06-29T05:17:41.938Z,47.81
2018-06-29T05:18:41.930Z,47.81
2018-06-29T05:19:41.915Z,48.01
2018-06-29T05:20:41.905Z,47.51
2018-06-29T05:21:41.918Z,47.71
2018-06-29T05:22:41.882Z,47.91
2018-06-29T05:23:41.871Z,47.81
2018-06-29T05:24:41.859Z,47.81
2018-06-29T05:25:41.849Z,47.81
2018-06-29T05:26:41.861Z,47.81
2018-06-29T05:27:41.825Z,47.81
2018-06-29T05:28:41.905Z,47.81
2018-06-29T05:29:41.806Z,47.71
2018-06-29T05:30:41.793Z,47.61
2018-06-29T05:31:41.806Z,47.71
2018-06-29T05:32:41.770Z,47.71
2018-06-29T05:33:41.759Z,48.01
2018-06-29T05:34:41.748Z,47.71
2018-06-29T05:35:41.736Z,47.81
2018-06-29T05:36:41.750Z,47.71
2018-06-29T05:37:41.715Z,47.81
2018-06-29T05:38:41.704Z,47.71
2018-06-29T05:39:41.694Z,47.81
2018-06-29T05:40:41.681Z,48.01
2018-06-29T05:41:41.770Z,47.91
2018-06-29T05:42:41.703Z,48.11
2018-06-29T05:43:41.653Z,47.91
2018-06-29T05:44:41.637Z,48.01
2018-06-29T05:45:41.628Z,47.71
2018-06-29T05:46:41.639Z,47.71
2018-06-29T05:47:41.605Z,48.11
2018-06-29T05:48:41.593Z,47.71
2018-06-29T05:49:41.581Z,47.71
2018-06-29T05:50:41.569Z,47.71
2018-06-29T05:51:41.583Z,47.71
2018-06-29T05:52:41.551Z,47.71
2018-06-29T05:53:41.536Z,47.41
2018-06-29T05:54:41.525Z,47.71
2018-06-29T05:55:41.515Z,47.71
2018-06-29T05:56:41.527Z,47.91
2018-06-29T05:57:41.492Z,47.81
2018-06-29T05:58:41.481Z,47.81
2018-06-29T05:59:41.469Z,47.91
2018-06-29T06:00:41.458Z,47.81
2018-06-29T06:01:41.448Z,47.81
2018-06-29T06:02:41.460Z,47.81
2018-06-29T06:03:41.425Z,47.71
2018-06-29T06:04:41.481Z,47.91
2018-06-29T06:05:41.403Z,47.61
2018-06-29T06:06:41.393Z,47.51
2018-06-29T06:07:41.405Z,47.31
2018-06-29T06:08:41.371Z,48.01
2018-06-29T06:09:41.357Z,47.31
2018-06-29T06:10:41.346Z,47.91
2018-06-29T06:11:41.338Z,48.01
2018-06-29T06:12:41.349Z,47.81
2018-06-29T06:13:41.312Z,47.81
2018-06-29T06:14:41.303Z,47.81
2018-06-29T06:15:41.290Z,47.81
2018-06-29T06:16:41.281Z,47.71
2018-06-29T06:17:41.294Z,47.71
2018-06-29T06:18:41.257Z,47.91
2018-06-29T06:19:41.246Z,47.81
2018-06-29T06:20:41.234Z,47.41
2018-06-29T06:21:41.227Z,47.81
2018-06-29T06:22:41.237Z,48.61
2018-06-29T06:23:41.201Z,48.11
2018-06-29T06:24:41.194Z,48.31
2018-06-29T06:25:41.183Z,48.01
2018-06-29T06:26:41.168Z,48.31
2018-06-29T06:27:41.182Z,48.61
2018-06-29T06:28:41.147Z,48.91
2018-06-29T06:29:41.135Z,49.40
2018-06-29T06:30:41.124Z,49.23
2018-06-29T06:31:41.117Z,49.30
2018-06-29T06:32:41.126Z,50.50
2018-06-29T06:33:41.090Z,49.90
2018-06-29T06:34:41.079Z,49.80
2018-06-29T06:35:41.070Z,50.23
2018-06-29T06:36:41.058Z,50.43
2018-06-29T06:37:41.069Z,50.62
2018-06-29T06:38:41.035Z,50.32
2018-06-29T06:39:41.023Z,50.23
2018-06-29T06:40:41.012Z,50.92
2018-06-29T06:41:41.054Z,50.52
2018-06-29T06:42:41.029Z,50.52
2018-06-29T06:43:40.980Z,50.82
2018-06-29T06:44:40.969Z,51.03
2018-06-29T06:45:40.958Z,50.32
2018-06-29T06:46:40.946Z,50.43
2018-06-29T06:47:40.962Z,51.05
2018-06-29T06:48:40.933Z,50.85
2018-06-29T06:49:40.912Z,50.73
2018-06-29T06:50:40.902Z,50.92
2018-06-29T06:51:40.922Z,50.85
2018-06-29T06:52:40.904Z,50.95
2018-06-29T06:53:40.875Z,51.05
2018-06-29T06:54:40.857Z,51.05
2018-06-29T06:55:40.846Z,50.74
2018-06-29T06:56:40.834Z,51.35
2018-06-29T06:57:40.847Z,51.05
2018-06-29T06:58:40.812Z,50.95
2018-06-29T06:59:40.802Z,51.25
2018-06-29T07:00:40.789Z,52.14
2018-06-29T07:01:40.778Z,52.25
2018-06-29T07:02:40.790Z,52.34
2018-06-29T07:03:40.757Z,51.65
2018-06-29T07:04:40.744Z,51.45
2018-06-29T07:05:40.735Z,51.15
2018-06-29T07:06:40.723Z,50.85
2018-06-29T07:07:40.736Z,50.65
2018-06-29T07:08:40.700Z,51.05
2018-06-29T07:09:40.689Z,50.74
2018-06-29T07:10:40.678Z,50.65
2018-06-29T07:11:40.665Z,50.74
2018-06-29T07:12:40.683Z,50.74
2018-06-29T07:13:40.645Z,50.85
2018-06-29T07:14:40.632Z,50.65
2018-06-29T07:15:40.621Z,50.85
2018-06-29T07:16:40.609Z,50.85
2018-06-29T07:17:40.658Z,50.65
2018-06-29T07:18:40.591Z,50.85
2018-06-29T07:19:40.576Z,50.85
2018-06-29T07:20:40.564Z,50.85
2018-06-29T07:21:40.561Z,50.85
2018-06-29T07:22:40.567Z,50.74
2018-06-29T07:23:40.531Z,50.74
2018-06-29T07:24:40.519Z,50.85
2018-06-29T07:25:40.508Z,51.15
2018-06-29T07:26:40.498Z,50.45
2018-06-29T07:27:40.513Z,49.95
2018-06-29T07:28:40.474Z,51.15
2018-06-29T07:29:40.464Z,50.45
2018-06-29T07:30:40.453Z,50.55
2018-06-29T07:31:40.441Z,50.45
2018-06-29T07:32:40.452Z,50.45
2018-06-29T07:33:40.416Z,50.55
2018-06-29T07:34:40.406Z,50.25
2018-06-29T07:35:40.395Z,50.65
2018-06-29T07:36:40.385Z,50.45
2018-06-29T07:37:40.396Z,50.45
2018-06-29T07:38:40.401Z,50.25
2018-06-29T07:39:40.350Z,50.45
2018-06-29T07:40:40.338Z,50.65
2018-06-29T07:41:40.329Z,50.45
2018-06-29T07:42:40.317Z,50.55
2018-06-29T07:43:40.331Z,51.05
2018-06-29T07:44:40.295Z,50.25
2018-06-29T07:45:40.285Z,50.65
2018-06-29T07:46:40.331Z,50.15
2018-06-29T07:47:40.263Z,50.45
2018-06-29T07:48:40.271Z,50.45
2018-06-29T07:49:40.238Z,50.55
2018-06-29T07:50:40.241Z,50.65
2018-06-29T07:51:40.214Z,50.15
2018-06-29T07:52:40.220Z,49.93
2018-06-29T07:53:40.216Z,50.05
2018-06-29T07:54:40.180Z,49.73
2018-06-29T07:55:40.168Z,49.35
2018-06-29T07:56:40.158Z,49.53
2018-06-29T07:57:40.151Z,49.23
2018-06-29T07:58:40.344Z,49.35
2018-06-29T07:59:40.125Z,49.23
2018-06-29T08:00:40.112Z,49.55
2018-06-29T08:01:40.102Z,49.03
2018-06-29T08:02:40.100Z,49.15
2018-06-29T08:03:40.103Z,49.65
2018-06-29T08:04:40.068Z,49.23
2018-06-29T08:05:40.055Z,49.73
2018-06-29T08:06:40.045Z,49.63
2018-06-29T08:07:40.035Z,49.85
2018-06-29T08:08:40.051Z,48.83
2018-06-29T08:09:40.011Z,49.53
2018-06-29T08:10:40.080Z,49.53
2018-06-29T08:11:39.989Z,49.25
2018-06-29T08:12:39.982Z,49.83
2018-06-29T08:13:39.990Z,49.33
2018-06-29T08:14:39.955Z,49.13
2018-06-29T08:15:39.944Z,49.23
2018-06-29T08:16:39.933Z,49.13
2018-06-29T08:17:39.922Z,49.43
2018-06-29T08:18:39.934Z,49.03
2018-06-29T08:19:39.899Z,49.03
2018-06-29T08:20:39.890Z,49.23
2018-06-29T08:21:39.877Z,49.33
2018-06-29T08:22:39.866Z,49.23
2018-06-29T08:23:39.877Z,49.13
2018-06-29T08:24:39.842Z,49.53
2018-06-29T08:25:39.832Z,49.43
2018-06-29T08:26:39.821Z,49.43
2018-06-29T08:27:39.809Z,49.43
2018-06-29T08:28:39.821Z,49.53
2018-06-29T08:29:39.786Z,49.40
2018-06-29T08:30:39.776Z,49.53
2018-06-29T08:31:39.765Z,49.70
2018-06-29T08:32:39.754Z,49.03
2018-06-29T08:33:39.767Z,49.70
2018-06-29T08:34:39.734Z,49.70
2018-06-29T08:35:39.721Z,49.01
2018-06-29T08:36:39.708Z,49.63
2018-06-29T08:37:39.699Z,48.80
2018-06-29T08:38:39.734Z,48.83
2018-06-29T08:39:39.675Z,48.93
2018-06-29T08:40:39.677Z,48.80
2018-06-29T08:41:39.652Z,48.93
2018-06-29T08:42:39.641Z,48.80
2018-06-29T08:43:39.671Z,49.70
2018-06-29T08:44:39.620Z,48.91
2018-06-29T08:45:39.609Z,48.80
2018-06-29T08:46:39.609Z,49.10
2018-06-29T08:47:39.586Z,49.80
2018-06-29T08:48:39.599Z,48.80
2018-06-29T08:49:39.635Z,49.01
2018-06-29T08:50:39.554Z,48.71
2018-06-29T08:51:39.543Z,48.91
2018-06-29T08:52:39.530Z,48.80
2018-06-29T08:53:39.544Z,48.71
2018-06-29T08:54:39.509Z,48.71
2018-06-29T08:55:39.496Z,48.80
2018-06-29T08:56:39.485Z,48.91
2018-06-29T08:57:39.475Z,49.10
2018-06-29T08:58:39.490Z,49.21
2018-06-29T08:59:39.460Z,48.80
2018-06-29T09:00:39.443Z,48.80
2018-06-29T09:01:39.430Z,49.01
2018-06-29T09:02:39.423Z,48.79
2018-06-29T09:03:39.431Z,49.08
2018-06-29T09:04:39.397Z,48.49
2018-06-29T09:05:39.389Z,48.50
2018-06-29T09:06:39.376Z,48.61
2018-06-29T09:07:39.365Z,48.31
2018-06-29T09:08:39.375Z,48.19
2018-06-29T09:09:39.341Z,48.19
2018-06-29T09:10:39.329Z,47.89
2018-06-29T09:11:39.317Z,48.49
2018-06-29T09:12:39.308Z,48.50
2018-06-29T09:13:39.319Z,48.49
2018-06-29T09:14:39.287Z,48.38
2018-06-29T09:15:39.276Z,48.58
2018-06-29T09:16:39.263Z,48.01
2018-06-29T09:17:39.251Z,48.08
2018-06-29T09:18:39.264Z,48.38
2018-06-29T09:19:39.230Z,48.19
2018-06-29T09:20:39.218Z,48.28
2018-06-29T09:21:39.206Z,48.28
2018-06-29T09:22:39.196Z,48.28
2018-06-29T09:23:39.190Z,48.28
2018-06-29T09:24:39.198Z,48.58
2018-06-29T09:25:39.163Z,48.58
2018-06-29T09:26:39.150Z,48.28
2018-06-29T09:27:39.144Z,48.79
2018-06-29T09:28:39.169Z,48.19
2018-06-29T09:29:39.119Z,48.28
2018-06-29T09:30:39.107Z,48.28
2018-06-29T09:31:39.097Z,48.28
2018-06-29T09:32:39.086Z,48.19
2018-06-29T09:33:39.075Z,48.19
2018-06-29T09:34:39.085Z,48.19
2018-06-29T09:35:39.051Z,48.28
2018-06-29T09:36:39.041Z,48.58
2018-06-29T09:37:39.029Z,48.28
2018-06-29T09:38:39.018Z,48.28
2018-06-29T09:39:39.030Z,48.66
2018-06-29T09:40:38.996Z,48.58
2018-06-29T09:41:38.984Z,48.26
2018-06-29T09:42:39.005Z,48.16
2018-06-29T09:43:38.965Z,48.19
2018-06-29T09:44:38.973Z,48.26
2018-06-29T09:45:38.939Z,48.36
2018-06-29T09:46:38.928Z,48.76
2018-06-29T09:47:38.917Z,48.26
2018-06-29T09:48:38.920Z,48.66
2018-06-29T09:49:38.919Z,48.46
2018-06-29T09:50:38.883Z,48.46
2018-06-29T09:51:38.873Z,48.56
2018-06-29T09:52:38.861Z,48.36
2018-06-29T09:53:38.849Z,48.66
2018-06-29T09:54:38.862Z,48.36
2018-06-29T09:55:38.828Z,48.56
2018-06-29T09:56:38.818Z,47.77
2018-06-29T09:57:38.804Z,48.07
2018-06-29T09:58:38.793Z,48.36
2018-06-29T09:59:38.805Z,48.26
2018-06-29T10:00:38.864Z,47.56
2018-06-29T10:01:38.760Z,46.77
2018-06-29T10:02:39.272Z,47.47
2018-06-29T10:03:38.737Z,47.17
2018-06-29T10:04:38.752Z,47.17
2018-06-29T10:05:38.715Z,46.65
2018-06-29T10:06:38.705Z,46.35
2018-06-29T10:07:38.693Z,46.45
2018-06-29T10:08:38.684Z,46.45
2018-06-29T10:09:38.696Z,46.35
2018-06-29T10:10:38.659Z,46.55
2018-06-29T10:11:38.647Z,46.72
2018-06-29T10:12:38.641Z,46.75
2018-06-29T10:13:38.625Z,46.75
2018-06-29T10:14:38.639Z,46.55
2018-06-29T10:15:38.604Z,46.05
2018-06-29T10:16:38.594Z,46.25
2018-06-29T10:17:38.581Z,46.15
2018-06-29T10:18:38.570Z,46.33
2018-06-29T10:19:38.727Z,46.33
2018-06-29T10:20:38.550Z,46.33
2018-06-29T10:21:38.536Z,46.33
2018-06-29T10:22:38.525Z,46.03
2018-06-29T10:23:38.513Z,45.93
2018-06-29T10:24:38.528Z,45.93
2018-06-29T10:25:38.492Z,46.13
2018-06-29T10:26:38.489Z,46.13
2018-06-29T10:27:38.469Z,45.93
2018-06-29T10:28:38.457Z,45.73
2018-06-29T10:29:38.470Z,46.13
2018-06-29T10:30:38.435Z,45.73
2018-06-29T10:31:38.428Z,45.93
2018-06-29T10:32:38.413Z,45.63
2018-06-29T10:33:38.401Z,45.83
2018-06-29T10:34:38.415Z,45.73
2018-06-29T10:35:38.380Z,45.43
2018-06-29T10:36:38.374Z,46.03
2018-06-29T10:37:38.362Z,46.23
2018-06-29T10:38:38.345Z,44.74
2018-06-29T10:39:38.359Z,45.23
2018-06-29T10:40:38.324Z,45.43
2018-06-29T10:41:38.315Z,45.23
2018-06-29T10:42:38.301Z,44.84
2018-06-29T10:43:38.315Z,44.74
2018-06-29T10:44:38.313Z,45.23
2018-06-29T10:45:38.266Z,45.14
2018-06-29T10:46:38.256Z,45.03
2018-06-29T10:47:38.245Z,45.03
2018-06-29T10:48:38.233Z,44.74
2018-06-29T10:49:38.246Z,45.23
2018-06-29T10:50:38.211Z,45.43
2018-06-29T10:51:38.201Z,44.71
2018-06-29T10:52:38.188Z,44.44
2018-06-29T10:53:38.178Z,45.14
2018-06-29T10:54:38.189Z,44.52
2018-06-29T10:55:38.156Z,44.34
2018-06-29T10:56:38.146Z,45.14
2018-06-29T10:57:38.135Z,45.23
2018-06-29T10:58:38.144Z,45.14
2018-06-29T10:59:38.135Z,45.23
2018-06-29T11:00:38.100Z,45.21
2018-06-29T11:01:38.089Z,45.03
2018-06-29T11:02:38.077Z,45.21
2018-06-29T11:03:38.066Z,45.01
2018-06-29T11:04:38.078Z,44.71
2018-06-29T11:05:38.133Z,44.81
2018-06-29T11:06:38.037Z,44.71
2018-06-29T11:07:38.021Z,44.92
2018-06-29T11:08:38.011Z,44.71
2018-06-29T11:09:38.000Z,44.71
2018-06-29T11:10:38.012Z,45.21
2018-06-29T11:11:37.980Z,45.71
2018-06-29T11:12:37.965Z,45.01
2018-06-29T11:13:37.953Z,44.32
2018-06-29T11:14:37.944Z,44.52
2018-06-29T11:15:37.954Z,45.01
2018-06-29T11:16:37.920Z,45.01
2018-06-29T11:17:37.909Z,45.21
2018-06-29T11:18:37.898Z,45.01
2018-06-29T11:19:37.887Z,44.42
2018-06-29T11:20:37.898Z,44.52
2018-06-29T11:21:37.865Z,44.62
2018-06-29T11:22:37.903Z,44.52
2018-06-29T11:23:37.841Z,44.32
2018-06-29T11:24:37.831Z,45.11
2018-06-29T11:25:37.844Z,44.62
2018-06-29T11:26:37.808Z,44.22
2018-06-29T11:27:37.797Z,44.22
2018-06-29T11:28:37.785Z,45.11
2018-06-29T11:29:37.779Z,44.52
2018-06-29T11:30:37.788Z,43.52
2018-06-29T11:31:37.752Z,44.10
2018-06-29T11:32:37.740Z,45.09
2018-06-29T11:33:37.730Z,44.89
2018-06-29T11:34:37.718Z,44.99
2018-06-29T11:35:37.740Z,44.87
2018-06-29T11:36:37.706Z,40.47
2018-06-29T11:37:37.696Z,40.33
2018-06-29T11:38:37.675Z,40.48
2018-06-29T11:39:37.663Z,39.04
2018-06-29T11:40:37.684Z,34.64
2018-06-29T11:41:37.641Z,33.01
2018-06-29T11:42:37.668Z,31.49
2018-06-29T11:43:37.619Z,30.46
2018-06-29T11:44:37.610Z,29.35
2018-06-29T11:45:37.635Z,28.72
2018-06-29T11:46:37.585Z,27.52
2018-06-29T11:47:37.574Z,26.51
2018-06-29T11:48:37.572Z,26.49
2018-06-29T11:49:37.553Z,26.57
2018-06-29T11:50:37.567Z,26.54
2018-06-29T11:51:37.531Z,26.14
2018-06-29T11:52:37.523Z,26.12
2018-06-29T11:53:37.510Z,24.95
2018-06-29T11:54:37.500Z,23.95
2018-06-29T11:55:37.521Z,24.04
2018-06-29T11:56:37.480Z,24.01
2018-06-29T11:57:37.470Z,23.61
2018-06-29T11:58:37.461Z,23.41
2018-06-29T11:59:37.454Z,22.23
2018-06-29T12:00:37.527Z,22.33
2018-06-29T12:01:37.429Z,22.30
2018-06-29T12:02:37.422Z,22.10
2018-06-29T12:03:37.412Z,22.10
2018-06-29T12:04:37.400Z,21.12
2018-06-29T12:05:37.417Z,20.82
2018-06-29T12:06:37.383Z,20.81
2018-06-29T12:07:37.372Z,20.52
2018-06-29T12:08:37.363Z,20.41
2018-06-29T12:09:37.370Z,21.37
2018-06-29T12:10:37.369Z,19.92
2018-06-29T12:11:37.351Z,20.21
2018-06-29T12:12:37.327Z,20.78
2018-06-29T12:13:37.320Z,20.48
2018-06-29T12:14:37.372Z,19.60
2018-06-29T12:15:37.329Z,19.50
2018-06-29T12:16:37.291Z,19.78
2018-06-29T12:17:37.301Z,20.06
2018-06-29T12:18:37.274Z,19.57
2018-06-29T12:19:37.267Z,19.76
2018-06-29T12:20:37.337Z,18.79
2018-06-29T12:21:37.293Z,18.88
2018-06-29T12:22:37.247Z,18.68
2018-06-29T12:23:37.235Z,18.97
2018-06-29T12:24:37.229Z,17.33
2018-06-29T12:25:37.341Z,17.42
2018-06-29T12:26:37.211Z,17.71
2018-06-29T12:27:37.225Z,17.81
2018-06-29T12:28:37.193Z,17.80
2018-06-29T12:29:37.208Z,17.70
2018-06-29T12:30:37.199Z,17.41
2018-06-29T12:31:37.165Z,17.22
2018-06-29T12:32:37.210Z,17.02
2018-06-29T12:33:37.154Z,17.02
2018-06-29T12:34:37.143Z,17.60
2018-06-29T12:35:37.159Z,17.02
2018-06-29T12:36:37.128Z,17.21
2018-06-29T12:37:37.168Z,16.53
2018-06-29T12:38:37.112Z,17.01
2018-06-29T12:39:37.109Z,17.30
2018-06-29T12:40:37.121Z,17.10
2018-06-29T12:41:37.089Z,17.58
2018-06-29T12:42:37.083Z,16.71
2018-06-29T12:43:37.206Z,17.09
2018-06-29T12:44:37.067Z,16.32
2018-06-29T12:45:37.088Z,16.13
2018-06-29T12:46:37.054Z,16.42
2018-06-29T12:47:37.044Z,16.23
2018-06-29T12:48:37.036Z,17.37
2018-06-29T12:49:37.114Z,16.31
2018-06-29T12:50:37.024Z,16.02
2018-06-29T12:51:37.107Z,16.31
2018-06-29T12:52:37.005Z,15.44